< < Back
Terminal Aerodrome Forecast


Current Version              Previous Versions:   1  2  3  4  5  6  7  8  9  

Terminal Aerodrome Forecast

171
FTUS44 KMOB 292300
TAFPNS
TAF
KPNS 292326Z 3000/3024 20009KT P6SM SCT250
     FM300800 32007KT P6SM BKN025 OVC250
     FM301200 35012KT P6SM SCT030 BKN120
     FM301500 36015G20KT P6SM FEW250=

Latest METAR

480
SAUS70 KWBC 300200 RRB
MTRPNS
METAR KPNS 300153Z 21007KT 10SM CLR 16/13 A3021 RMK AO2 SLP230
T01560128


USA.gov is the U.S. government's official web portal to all federal, state and local government web resources and services.